sensor_id;sensor_type;location;lat;lon;timestamp;P1;durP1;ratioP1;P2;durP2;ratioP2
21426;SDS011;10874;49.452;11.050;2023-04-25T00:02:09;4.13;;;3.10;;
21426;SDS011;10874;49.452;11.050;2023-04-25T00:04:36;3.70;;;3.40;;
21426;SDS011;10874;49.452;11.050;2023-04-25T00:07:04;3.60;;;3.30;;
21426;SDS011;10874;49.452;11.050;2023-04-25T00:09:32;3.63;;;3.27;;
21426;SDS011;10874;49.452;11.050;2023-04-25T00:11:58;3.93;;;3.53;;
21426;SDS011;10874;49.452;11.050;2023-04-25T00:14:25;3.63;;;3.20;;
21426;SDS011;10874;49.452;11.050;2023-04-25T00:16:52;3.63;;;3.33;;
21426;SDS011;10874;49.452;11.050;2023-04-25T00:19:18;2.93;;;2.73;;
21426;SDS011;10874;49.452;11.050;2023-04-25T00:21:45;4.47;;;3.23;;
21426;SDS011;10874;49.452;11.050;2023-04-25T00:24:12;3.60;;;3.30;;
21426;SDS011;10874;49.452;11.050;2023-04-25T00:26:39;4.53;;;3.00;;
21426;SDS011;10874;49.452;11.050;2023-04-25T00:29:06;3.60;;;3.13;;
21426;SDS011;10874;49.452;11.050;2023-04-25T00:31:32;4.43;;;3.47;;
21426;SDS011;10874;49.452;11.050;2023-04-25T00:33:59;3.40;;;3.10;;
21426;SDS011;10874;49.452;11.050;2023-04-25T00:36:26;3.33;;;3.03;;
21426;SDS011;10874;49.452;11.050;2023-04-25T00:38:54;3.97;;;3.57;;
21426;SDS011;10874;49.452;11.050;2023-04-25T00:41:24;3.23;;;2.93;;
21426;SDS011;10874;49.452;11.050;2023-04-25T00:43:51;3.13;;;2.83;;
21426;SDS011;10874;49.452;11.050;2023-04-25T00:46:18;3.90;;;3.50;;
21426;SDS011;10874;49.452;11.050;2023-04-25T00:48:45;3.03;;;2.73;;
21426;SDS011;10874;49.452;11.050;2023-04-25T00:51:13;3.67;;;3.00;;
21426;SDS011;10874;49.452;11.050;2023-04-25T00:53:42;2.90;;;2.70;;
21426;SDS011;10874;49.452;11.050;2023-04-25T00:56:08;3.10;;;2.80;;
21426;SDS011;10874;49.452;11.050;2023-04-25T00:58:36;3.00;;;2.80;;
21426;SDS011;10874;49.452;11.050;2023-04-25T01:01:03;3.87;;;3.07;;
21426;SDS011;10874;49.452;11.050;2023-04-25T01:03:31;4.33;;;3.00;;
21426;SDS011;10874;49.452;11.050;2023-04-25T01:05:59;3.50;;;3.20;;
21426;SDS011;10874;49.452;11.050;2023-04-25T01:08:26;3.07;;;2.77;;
21426;SDS011;10874;49.452;11.050;2023-04-25T01:10:53;3.10;;;2.67;;
21426;SDS011;10874;49.452;11.050;2023-04-25T01:13:19;2.53;;;2.33;;
21426;SDS011;10874;49.452;11.050;2023-04-25T01:15:46;3.27;;;2.47;;
21426;SDS011;10874;49.452;11.050;2023-04-25T01:18:13;2.60;;;2.40;;
21426;SDS011;10874;49.452;11.050;2023-04-25T01:20:40;3.83;;;2.93;;
21426;SDS011;10874;49.452;11.050;2023-04-25T01:23:08;2.73;;;2.53;;
21426;SDS011;10874;49.452;11.050;2023-04-25T01:25:35;3.50;;;3.20;;
21426;SDS011;10874;49.452;11.050;2023-04-25T01:28:03;3.17;;;2.60;;
21426;SDS011;10874;49.452;11.050;2023-04-25T01:30:31;2.67;;;2.47;;
21426;SDS011;10874;49.452;11.050;2023-04-25T01:32:57;2.70;;;2.43;;
21426;SDS011;10874;49.452;11.050;2023-04-25T01:35:27;3.10;;;2.80;;
21426;SDS011;10874;49.452;11.050;2023-04-25T01:37:54;3.57;;;2.83;;
21426;SDS011;10874;49.452;11.050;2023-04-25T01:40:21;2.97;;;2.70;;
21426;SDS011;10874;49.452;11.050;2023-04-25T01:42:49;3.83;;;2.80;;
21426;SDS011;10874;49.452;11.050;2023-04-25T01:45:18;3.40;;;2.60;;
21426;SDS011;10874;49.452;11.050;2023-04-25T01:47:45;4.10;;;2.80;;
21426;SDS011;10874;49.452;11.050;2023-04-25T01:50:16;2.90;;;2.70;;
21426;SDS011;10874;49.452;11.050;2023-04-25T01:52:43;4.23;;;2.70;;
21426;SDS011;10874;49.452;11.050;2023-04-25T01:55:11;3.30;;;3.00;;
21426;SDS011;10874;49.452;11.050;2023-04-25T01:57:42;3.10;;;2.80;;
21426;SDS011;10874;49.452;11.050;2023-04-25T02:00:10;3.83;;;2.87;;
21426;SDS011;10874;49.452;11.050;2023-04-25T02:02:40;3.00;;;2.80;;
21426;SDS011;10874;49.452;11.050;2023-04-25T02:05:39;3.10;;;2.70;;
21426;SDS011;10874;49.452;11.050;2023-04-25T02:08:09;3.23;;;2.83;;
21426;SDS011;10874;49.452;11.050;2023-04-25T02:10:36;3.23;;;2.57;;
21426;SDS011;10874;49.452;11.050;2023-04-25T02:13:12;2.90;;;2.60;;
21426;SDS011;10874;49.452;11.050;2023-04-25T02:15:51;3.40;;;2.87;;
21426;SDS011;10874;49.452;11.050;2023-04-25T02:18:19;4.33;;;2.53;;
21426;SDS011;10874;49.452;11.050;2023-04-25T02:20:47;3.33;;;3.03;;
21426;SDS011;10874;49.452;11.050;2023-04-25T02:23:14;3.70;;;2.97;;
21426;SDS011;10874;49.452;11.050;2023-04-25T02:25:42;2.80;;;2.60;;
21426;SDS011;10874;49.452;11.050;2023-04-25T02:28:08;3.73;;;3.00;;
21426;SDS011;10874;49.452;11.050;2023-04-25T02:30:35;3.13;;;2.80;;
21426;SDS011;10874;49.452;11.050;2023-04-25T02:33:04;3.63;;;3.07;;
21426;SDS011;10874;49.452;11.050;2023-04-25T02:35:31;3.27;;;2.97;;
21426;SDS011;10874;49.452;11.050;2023-04-25T02:37:58;3.63;;;3.10;;
21426;SDS011;10874;49.452;11.050;2023-04-25T02:40:24;3.37;;;3.07;;
21426;SDS011;10874;49.452;11.050;2023-04-25T02:42:53;3.63;;;3.23;;
21426;SDS011;10874;49.452;11.050;2023-04-25T02:45:20;5.20;;;3.80;;
21426;SDS011;10874;49.452;11.050;2023-04-25T02:47:47;4.73;;;3.60;;
21426;SDS011;10874;49.452;11.050;2023-04-25T02:50:14;6.03;;;3.70;;
21426;SDS011;10874;49.452;11.050;2023-04-25T02:52:40;3.90;;;3.50;;
21426;SDS011;10874;49.452;11.050;2023-04-25T02:55:13;4.00;;;3.60;;
21426;SDS011;10874;49.452;11.050;2023-04-25T02:57:40;3.73;;;3.43;;
21426;SDS011;10874;49.452;11.050;2023-04-25T03:00:09;4.30;;;3.90;;
21426;SDS011;10874;49.452;11.050;2023-04-25T03:02:38;4.23;;;3.80;;
21426;SDS011;10874;49.452;11.050;2023-04-25T03:05:05;5.40;;;4.17;;
21426;SDS011;10874;49.452;11.050;2023-04-25T03:07:32;4.67;;;3.90;;
21426;SDS011;10874;49.452;11.050;2023-04-25T03:09:59;4.90;;;4.13;;
21426;SDS011;10874;49.452;11.050;2023-04-25T03:12:26;4.00;;;3.70;;
21426;SDS011;10874;49.452;11.050;2023-04-25T03:14:53;4.70;;;4.30;;
21426;SDS011;10874;49.452;11.050;2023-04-25T03:17:19;4.53;;;4.13;;
21426;SDS011;10874;49.452;11.050;2023-04-25T03:19:48;6.97;;;4.70;;
21426;SDS011;10874;49.452;11.050;2023-04-25T03:22:15;5.93;;;4.73;;
21426;SDS011;10874;49.452;11.050;2023-04-25T03:24:42;5.53;;;4.80;;
21426;SDS011;10874;49.452;11.050;2023-04-25T03:27:08;4.50;;;4.10;;
21426;SDS011;10874;49.452;11.050;2023-04-25T03:29:35;4.53;;;4.13;;
21426;SDS011;10874;49.452;11.050;2023-04-25T03:32:03;5.30;;;4.70;;
21426;SDS011;10874;49.452;11.050;2023-04-25T03:34:30;4.87;;;4.47;;
21426;SDS011;10874;49.452;11.050;2023-04-25T03:36:57;5.90;;;4.57;;
21426;SDS011;10874;49.452;11.050;2023-04-25T03:39:24;5.03;;;4.47;;
21426;SDS011;10874;49.452;11.050;2023-04-25T03:41:52;5.27;;;4.77;;
21426;SDS011;10874;49.452;11.050;2023-04-25T03:44:19;6.13;;;4.80;;
21426;SDS011;10874;49.452;11.050;2023-04-25T03:46:46;5.60;;;4.63;;
21426;SDS011;10874;49.452;11.050;2023-04-25T03:49:13;4.60;;;4.20;;
21426;SDS011;10874;49.452;11.050;2023-04-25T03:52:13;5.63;;;5.00;;
21426;SDS011;10874;49.452;11.050;2023-04-25T03:54:40;5.57;;;4.77;;
21426;SDS011;10874;49.452;11.050;2023-04-25T03:57:10;5.53;;;5.00;;
21426;SDS011;10874;49.452;11.050;2023-04-25T03:59:38;5.33;;;4.83;;
21426;SDS011;10874;49.452;11.050;2023-04-25T04:02:07;5.60;;;4.67;;
21426;SDS011;10874;49.452;11.050;2023-04-25T04:04:35;5.23;;;4.70;;
21426;SDS011;10874;49.452;11.050;2023-04-25T04:07:03;5.20;;;4.50;;
21426;SDS011;10874;49.452;11.050;2023-04-25T04:09:34;5.93;;;5.10;;
21426;SDS011;10874;49.452;11.050;2023-04-25T04:12:05;7.17;;;5.13;;
21426;SDS011;10874;49.452;11.050;2023-04-25T04:14:33;5.50;;;4.50;;
21426;SDS011;10874;49.452;11.050;2023-04-25T04:16:59;5.40;;;4.90;;
21426;SDS011;10874;49.452;11.050;2023-04-25T04:19:27;7.63;;;4.90;;
21426;SDS011;10874;49.452;11.050;2023-04-25T04:22:03;6.27;;;4.70;;
21426;SDS011;10874;49.452;11.050;2023-04-25T04:24:30;6.27;;;5.00;;
21426;SDS011;10874;49.452;11.050;2023-04-25T04:27:01;5.33;;;4.80;;
21426;SDS011;10874;49.452;11.050;2023-04-25T04:30:06;5.30;;;4.80;;
21426;SDS011;10874;49.452;11.050;2023-04-25T04:32:37;6.53;;;4.90;;
21426;SDS011;10874;49.452;11.050;2023-04-25T04:35:05;5.57;;;4.73;;
21426;SDS011;10874;49.452;11.050;2023-04-25T04:37:32;5.23;;;4.73;;
21426;SDS011;10874;49.452;11.050;2023-04-25T04:40:01;6.30;;;5.57;;
21426;SDS011;10874;49.452;11.050;2023-04-25T04:42:45;5.23;;;4.60;;
21426;SDS011;10874;49.452;11.050;2023-04-25T04:45:24;5.00;;;4.47;;
21426;SDS011;10874;49.452;11.050;2023-04-25T04:48:23;5.50;;;5.00;;
21426;SDS011;10874;49.452;11.050;2023-04-25T04:51:13;5.90;;;5.00;;
21426;SDS011;10874;49.452;11.050;2023-04-25T04:54:10;5.27;;;4.77;;
21426;SDS011;10874;49.452;11.050;2023-04-25T04:56:55;5.87;;;4.90;;
21426;SDS011;10874;49.452;11.050;2023-04-25T04:59:28;6.00;;;5.40;;
21426;SDS011;10874;49.452;11.050;2023-04-25T05:02:20;7.47;;;5.17;;
21426;SDS011;10874;49.452;11.050;2023-04-25T05:04:56;5.80;;;4.90;;
21426;SDS011;10874;49.452;11.050;2023-04-25T05:07:33;5.83;;;4.90;;
21426;SDS011;10874;49.452;11.050;2023-04-25T05:10:08;6.43;;;5.07;;
21426;SDS011;10874;49.452;11.050;2023-04-25T05:12:34;5.93;;;5.33;;
21426;SDS011;10874;49.452;11.050;2023-04-25T05:15:21;6.43;;;5.50;;
21426;SDS011;10874;49.452;11.050;2023-04-25T05:17:57;5.20;;;4.70;;
21426;SDS011;10874;49.452;11.050;2023-04-25T05:20:24;5.70;;;5.20;;
21426;SDS011;10874;49.452;11.050;2023-04-25T05:23:14;5.93;;;5.13;;
21426;SDS011;10874;49.452;11.050;2023-04-25T05:26:02;5.50;;;4.90;;
21426;SDS011;10874;49.452;11.050;2023-04-25T05:28:42;5.87;;;4.87;;
21426;SDS011;10874;49.452;11.050;2023-04-25T05:31:27;5.50;;;5.00;;
21426;SDS011;10874;49.452;11.050;2023-04-25T05:33:59;5.30;;;4.80;;
21426;SDS011;10874;49.452;11.050;2023-04-25T05:36:38;6.10;;;5.00;;
21426;SDS011;10874;49.452;11.050;2023-04-25T05:39:04;5.33;;;4.83;;
21426;SDS011;10874;49.452;11.050;2023-04-25T05:41:51;5.20;;;4.50;;
21426;SDS011;10874;49.452;11.050;2023-04-25T05:44:49;5.33;;;4.20;;
21426;SDS011;10874;49.452;11.050;2023-04-25T05:47:23;4.83;;;4.37;;
21426;SDS011;10874;49.452;11.050;2023-04-25T05:50:19;6.03;;;5.20;;
21426;SDS011;10874;49.452;11.050;2023-04-25T05:53:08;5.20;;;4.70;;
21426;SDS011;10874;49.452;11.050;2023-04-25T05:55:39;5.40;;;4.53;;
21426;SDS011;10874;49.452;11.050;2023-04-25T05:58:20;5.07;;;4.57;;
21426;SDS011;10874;49.452;11.050;2023-04-25T06:00:47;6.10;;;4.80;;
21426;SDS011;10874;49.452;11.050;2023-04-25T06:03:14;5.20;;;4.73;;
21426;SDS011;10874;49.452;11.050;2023-04-25T06:05:46;4.83;;;4.33;;
21426;SDS011;10874;49.452;11.050;2023-04-25T06:08:13;5.10;;;4.60;;
21426;SDS011;10874;49.452;11.050;2023-04-25T06:10:39;5.17;;;4.67;;
21426;SDS011;10874;49.452;11.050;2023-04-25T06:13:06;5.33;;;4.83;;
21426;SDS011;10874;49.452;11.050;2023-04-25T06:15:34;5.23;;;4.60;;
21426;SDS011;10874;49.452;11.050;2023-04-25T06:18:01;5.70;;;5.03;;
21426;SDS011;10874;49.452;11.050;2023-04-25T06:20:28;5.70;;;5.17;;
21426;SDS011;10874;49.452;11.050;2023-04-25T06:22:57;6.00;;;5.13;;
21426;SDS011;10874;49.452;11.050;2023-04-25T06:25:44;7.20;;;5.37;;
21426;SDS011;10874;49.452;11.050;2023-04-25T06:28:11;6.13;;;5.33;;
21426;SDS011;10874;49.452;11.050;2023-04-25T06:30:39;6.40;;;5.57;;
21426;SDS011;10874;49.452;11.050;2023-04-25T06:33:10;8.10;;;5.47;;
21426;SDS011;10874;49.452;11.050;2023-04-25T06:35:38;5.97;;;5.37;;
21426;SDS011;10874;49.452;11.050;2023-04-25T06:38:06;5.97;;;5.37;;
21426;SDS011;10874;49.452;11.050;2023-04-25T06:40:35;7.27;;;6.30;;
21426;SDS011;10874;49.452;11.050;2023-04-25T06:43:02;7.83;;;6.27;;
21426;SDS011;10874;49.452;11.050;2023-04-25T06:45:55;6.63;;;5.90;;
21426;SDS011;10874;49.452;11.050;2023-04-25T06:48:24;5.73;;;5.23;;
21426;SDS011;10874;49.452;11.050;2023-04-25T06:50:52;7.83;;;6.10;;
21426;SDS011;10874;49.452;11.050;2023-04-25T06:53:19;6.30;;;5.70;;
21426;SDS011;10874;49.452;11.050;2023-04-25T06:55:51;8.43;;;5.70;;
21426;SDS011;10874;49.452;11.050;2023-04-25T06:58:20;6.50;;;5.90;;
21426;SDS011;10874;49.452;11.050;2023-04-25T07:00:50;6.83;;;6.00;;
21426;SDS011;10874;49.452;11.050;2023-04-25T07:03:19;6.63;;;6.03;;
21426;SDS011;10874;49.452;11.050;2023-04-25T07:05:47;7.40;;;6.20;;
21426;SDS011;10874;49.452;11.050;2023-04-25T07:08:14;6.67;;;6.07;;
21426;SDS011;10874;49.452;11.050;2023-04-25T07:10:41;6.70;;;6.00;;
21426;SDS011;10874;49.452;11.050;2023-04-25T07:13:07;6.33;;;5.73;;
21426;SDS011;10874;49.452;11.050;2023-04-25T07:15:34;8.43;;;6.07;;
21426;SDS011;10874;49.452;11.050;2023-04-25T07:18:01;6.43;;;5.83;;
21426;SDS011;10874;49.452;11.050;2023-04-25T07:20:28;7.07;;;5.80;;
21426;SDS011;10874;49.452;11.050;2023-04-25T07:22:55;8.17;;;6.40;;
21426;SDS011;10874;49.452;11.050;2023-04-25T07:25:23;6.37;;;5.43;;
21426;SDS011;10874;49.452;11.050;2023-04-25T07:27:49;5.13;;;4.63;;
21426;SDS011;10874;49.452;11.050;2023-04-25T08:52:51;4.80;;;3.30;;
21426;SDS011;10874;49.452;11.050;2023-04-25T08:55:20;3.70;;;3.37;;
21426;SDS011;10874;49.452;11.050;2023-04-25T08:57:51;4.77;;;3.93;;
21426;SDS011;10874;49.452;11.050;2023-04-25T09:00:19;4.60;;;3.70;;
21426;SDS011;10874;49.452;11.050;2023-04-25T09:02:46;4.63;;;4.07;;
21426;SDS011;10874;49.452;11.050;2023-04-25T09:05:14;5.20;;;4.00;;
21426;SDS011;10874;49.452;11.050;2023-04-25T09:07:41;3.70;;;3.40;;
21426;SDS011;10874;49.452;11.050;2023-04-25T09:10:08;6.43;;;4.30;;
21426;SDS011;10874;49.452;11.050;2023-04-25T09:12:36;4.67;;;4.27;;
21426;SDS011;10874;49.452;11.050;2023-04-25T09:15:07;5.27;;;4.67;;
21426;SDS011;10874;49.452;11.050;2023-04-25T09:17:56;5.57;;;4.07;;
21426;SDS011;10874;49.452;11.050;2023-04-25T09:20:26;5.67;;;4.70;;
21426;SDS011;10874;49.452;11.050;2023-04-25T09:23:03;5.33;;;4.83;;
21426;SDS011;10874;49.452;11.050;2023-04-25T09:25:36;5.53;;;5.03;;
21426;SDS011;10874;49.452;11.050;2023-04-25T09:28:07;5.50;;;4.67;;
21426;SDS011;10874;49.452;11.050;2023-04-25T09:30:35;8.07;;;4.73;;
21426;SDS011;10874;49.452;11.050;2023-04-25T09:33:10;7.03;;;4.37;;
21426;SDS011;10874;49.452;11.050;2023-04-25T09:35:43;5.23;;;4.50;;
21426;SDS011;10874;49.452;11.050;2023-04-25T09:38:18;5.17;;;4.67;;
21426;SDS011;10874;49.452;11.050;2023-04-25T09:41:08;4.93;;;4.40;;
21426;SDS011;10874;49.452;11.050;2023-04-25T09:43:42;5.13;;;4.63;;
21426;SDS011;10874;49.452;11.050;2023-04-25T09:46:11;6.27;;;4.40;;
21426;SDS011;10874;49.452;11.050;2023-04-25T09:48:47;4.93;;;4.47;;
21426;SDS011;10874;49.452;11.050;2023-04-25T09:51:14;5.77;;;4.27;;
21426;SDS011;10874;49.452;11.050;2023-04-25T09:53:44;4.90;;;4.40;;
21426;SDS011;10874;49.452;11.050;2023-04-25T09:56:51;3.93;;;3.63;;
21426;SDS011;10874;49.452;11.050;2023-04-25T09:59:20;3.57;;;3.20;;
21426;SDS011;10874;49.452;11.050;2023-04-25T10:01:48;3.67;;;3.37;;
21426;SDS011;10874;49.452;11.050;2023-04-25T10:04:24;4.60;;;3.80;;
21426;SDS011;10874;49.452;11.050;2023-04-25T10:07:05;4.93;;;4.40;;
21426;SDS011;10874;49.452;11.050;2023-04-25T10:09:32;4.73;;;4.33;;
21426;SDS011;10874;49.452;11.050;2023-04-25T10:12:02;5.67;;;4.60;;
21426;SDS011;10874;49.452;11.050;2023-04-25T10:14:31;5.27;;;4.10;;
21426;SDS011;10874;49.452;11.050;2023-04-25T10:16:58;4.47;;;4.07;;
21426;SDS011;10874;49.452;11.050;2023-04-25T10:19:25;5.23;;;3.87;;
21426;SDS011;10874;49.452;11.050;2023-04-25T10:22:07;5.70;;;4.53;;
21426;SDS011;10874;49.452;11.050;2023-04-25T10:24:37;4.80;;;4.30;;
21426;SDS011;10874;49.452;11.050;2023-04-25T10:27:04;5.40;;;4.20;;
21426;SDS011;10874;49.452;11.050;2023-04-25T10:29:32;5.23;;;4.23;;
21426;SDS011;10874;49.452;11.050;2023-04-25T10:31:58;4.17;;;3.83;;
21426;SDS011;10874;49.452;11.050;2023-04-25T10:34:38;3.80;;;2.80;;
21426;SDS011;10874;49.452;11.050;2023-04-25T10:37:08;3.70;;;2.63;;
21426;SDS011;10874;49.452;11.050;2023-04-25T10:39:35;3.40;;;2.70;;
21426;SDS011;10874;49.452;11.050;2023-04-25T10:42:02;6.17;;;2.30;;
21426;SDS011;10874;49.452;11.050;2023-04-25T10:44:29;4.30;;;2.93;;
21426;SDS011;10874;49.452;11.050;2023-04-25T10:46:57;3.73;;;2.97;;
21426;SDS011;10874;49.452;11.050;2023-04-25T10:49:31;3.80;;;2.60;;
21426;SDS011;10874;49.452;11.050;2023-04-25T10:52:11;2.73;;;2.43;;
21426;SDS011;10874;49.452;11.050;2023-04-25T10:54:47;4.67;;;2.47;;
21426;SDS011;10874;49.452;11.050;2023-04-25T10:57:25;2.87;;;2.10;;
21426;SDS011;10874;49.452;11.050;2023-04-25T10:59:52;2.13;;;1.80;;
21426;SDS011;10874;49.452;11.050;2023-04-25T11:02:19;2.67;;;1.80;;
21426;SDS011;10874;49.452;11.050;2023-04-25T11:04:46;3.97;;;2.20;;
21426;SDS011;10874;49.452;11.050;2023-04-25T11:07:22;2.80;;;1.70;;
21426;SDS011;10874;49.452;11.050;2023-04-25T11:09:50;2.20;;;1.63;;
21426;SDS011;10874;49.452;11.050;2023-04-25T11:12:16;2.07;;;1.73;;
21426;SDS011;10874;49.452;11.050;2023-04-25T11:14:44;1.93;;;1.67;;
21426;SDS011;10874;49.452;11.050;2023-04-25T11:17:10;3.60;;;1.93;;
21426;SDS011;10874;49.452;11.050;2023-04-25T11:19:38;1.87;;;1.60;;
21426;SDS011;10874;49.452;11.050;2023-04-25T11:22:04;2.33;;;1.97;;
21426;SDS011;10874;49.452;11.050;2023-04-25T11:24:33;2.67;;;1.80;;
21426;SDS011;10874;49.452;11.050;2023-04-25T11:27:03;1.70;;;1.60;;
21426;SDS011;10874;49.452;11.050;2023-04-25T11:29:31;4.70;;;1.97;;
21426;SDS011;10874;49.452;11.050;2023-04-25T11:31:58;1.80;;;1.33;;
21426;SDS011;10874;49.452;11.050;2023-04-25T11:34:25;1.83;;;1.50;;
21426;SDS011;10874;49.452;11.050;2023-04-25T11:36:52;4.80;;;1.30;;
21426;SDS011;10874;49.452;11.050;2023-04-25T11:39:19;2.40;;;1.50;;
21426;SDS011;10874;49.452;11.050;2023-04-25T11:41:46;1.50;;;1.40;;
21426;SDS011;10874;49.452;11.050;2023-04-25T11:44:16;3.00;;;1.40;;
21426;SDS011;10874;49.452;11.050;2023-04-25T11:46:44;1.93;;;1.50;;
21426;SDS011;10874;49.452;11.050;2023-04-25T11:49:11;1.60;;;1.50;;
21426;SDS011;10874;49.452;11.050;2023-04-25T11:51:41;1.33;;;1.10;;
21426;SDS011;10874;49.452;11.050;2023-04-25T11:54:09;1.90;;;1.30;;
21426;SDS011;10874;49.452;11.050;2023-04-25T11:56:36;1.77;;;1.60;;
21426;SDS011;10874;49.452;11.050;2023-04-25T11:59:04;1.40;;;1.30;;
21426;SDS011;10874;49.452;11.050;2023-04-25T12:01:34;2.30;;;1.37;;
21426;SDS011;10874;49.452;11.050;2023-04-25T12:04:18;1.77;;;1.60;;
21426;SDS011;10874;49.452;11.050;2023-04-25T12:06:46;1.67;;;1.10;;
21426;SDS011;10874;49.452;11.050;2023-04-25T12:09:15;1.47;;;1.37;;
21426;SDS011;10874;49.452;11.050;2023-04-25T12:11:46;1.50;;;1.40;;
21426;SDS011;10874;49.452;11.050;2023-04-25T12:14:23;2.40;;;1.50;;
21426;SDS011;10874;49.452;11.050;2023-04-25T12:16:54;1.20;;;1.10;;
21426;SDS011;10874;49.452;11.050;2023-04-25T12:19:22;2.30;;;1.33;;
21426;SDS011;10874;49.452;11.050;2023-04-25T12:21:49;1.40;;;1.30;;
21426;SDS011;10874;49.452;11.050;2023-04-25T12:24:25;2.70;;;1.60;;
21426;SDS011;10874;49.452;11.050;2023-04-25T12:26:59;3.10;;;1.57;;
21426;SDS011;10874;49.452;11.050;2023-04-25T12:29:27;1.10;;;1.00;;
21426;SDS011;10874;49.452;11.050;2023-04-25T12:32:00;4.23;;;1.40;;
21426;SDS011;10874;49.452;11.050;2023-04-25T12:34:31;2.37;;;1.30;;
21426;SDS011;10874;49.452;11.050;2023-04-25T12:36:58;1.70;;;1.37;;
21426;SDS011;10874;49.452;11.050;2023-04-25T12:39:25;1.50;;;1.30;;
21426;SDS011;10874;49.452;11.050;2023-04-25T12:41:52;1.40;;;1.30;;
21426;SDS011;10874;49.452;11.050;2023-04-25T12:44:20;1.47;;;1.30;;
21426;SDS011;10874;49.452;11.050;2023-04-25T12:46:47;1.70;;;1.60;;
21426;SDS011;10874;49.452;11.050;2023-04-25T12:49:14;2.00;;;1.47;;
21426;SDS011;10874;49.452;11.050;2023-04-25T12:51:45;1.93;;;1.33;;
21426;SDS011;10874;49.452;11.050;2023-04-25T12:54:12;4.40;;;1.60;;
21426;SDS011;10874;49.452;11.050;2023-04-25T12:56:38;1.80;;;1.70;;
21426;SDS011;10874;49.452;11.050;2023-04-25T12:59:05;2.23;;;1.73;;
21426;SDS011;10874;49.452;11.050;2023-04-25T13:01:32;1.90;;;1.70;;
21426;SDS011;10874;49.452;11.050;2023-04-25T13:04:02;1.43;;;1.33;;
21426;SDS011;10874;49.452;11.050;2023-04-25T13:06:29;3.10;;;1.70;;
21426;SDS011;10874;49.452;11.050;2023-04-25T13:08:59;2.97;;;1.50;;
21426;SDS011;10874;49.452;11.050;2023-04-25T13:11:25;1.67;;;1.57;;
21426;SDS011;10874;49.452;11.050;2023-04-25T13:13:52;2.43;;;1.80;;
21426;SDS011;10874;49.452;11.050;2023-04-25T13:16:19;1.90;;;1.80;;
21426;SDS011;10874;49.452;11.050;2023-04-25T13:18:47;2.87;;;1.67;;
21426;SDS011;10874;49.452;11.050;2023-04-25T13:21:14;1.87;;;1.67;;
21426;SDS011;10874;49.452;11.050;2023-04-25T13:23:41;2.73;;;1.50;;
21426;SDS011;10874;49.452;11.050;2023-04-25T13:26:12;1.70;;;1.60;;
21426;SDS011;10874;49.452;11.050;2023-04-25T13:28:39;1.80;;;1.60;;
21426;SDS011;10874;49.452;11.050;2023-04-25T13:31:10;2.17;;;1.43;;
21426;SDS011;10874;49.452;11.050;2023-04-25T13:33:37;2.80;;;1.67;;
21426;SDS011;10874;49.452;11.050;2023-04-25T13:36:03;2.10;;;1.70;;
21426;SDS011;10874;49.452;11.050;2023-04-25T13:38:30;1.83;;;1.73;;
21426;SDS011;10874;49.452;11.050;2023-04-25T13:40:57;4.03;;;2.20;;
21426;SDS011;10874;49.452;11.050;2023-04-25T13:43:24;2.03;;;1.83;;
21426;SDS011;10874;49.452;11.050;2023-04-25T13:45:50;2.00;;;1.80;;
21426;SDS011;10874;49.452;11.050;2023-04-25T13:48:18;2.50;;;1.93;;
21426;SDS011;10874;49.452;11.050;2023-04-25T13:50:45;2.40;;;2.00;;
21426;SDS011;10874;49.452;11.050;2023-04-25T13:53:12;2.47;;;2.03;;
21426;SDS011;10874;49.452;11.050;2023-04-25T13:55:39;4.33;;;2.33;;
21426;SDS011;10874;49.452;11.050;2023-04-25T13:58:06;2.50;;;2.30;;
21426;SDS011;10874;49.452;11.050;2023-04-25T14:00:37;3.23;;;2.07;;
21426;SDS011;10874;49.452;11.050;2023-04-25T14:03:09;3.07;;;1.90;;
21426;SDS011;10874;49.452;11.050;2023-04-25T14:05:36;2.20;;;2.00;;
21426;SDS011;10874;49.452;11.050;2023-04-25T14:08:05;3.97;;;1.80;;
21426;SDS011;10874;49.452;11.050;2023-04-25T14:10:32;2.67;;;2.20;;
21426;SDS011;10874;49.452;11.050;2023-04-25T14:12:59;2.43;;;2.00;;
21426;SDS011;10874;49.452;11.050;2023-04-25T14:15:28;2.30;;;2.10;;
21426;SDS011;10874;49.452;11.050;2023-04-25T14:17:55;2.63;;;2.27;;
21426;SDS011;10874;49.452;11.050;2023-04-25T14:20:22;3.60;;;2.27;;
21426;SDS011;10874;49.452;11.050;2023-04-25T14:22:50;3.87;;;2.20;;
21426;SDS011;10874;49.452;11.050;2023-04-25T14:25:17;2.57;;;2.23;;
21426;SDS011;10874;49.452;11.050;2023-04-25T14:27:43;2.80;;;2.30;;
21426;SDS011;10874;49.452;11.050;2023-04-25T14:30:13;2.80;;;2.53;;
21426;SDS011;10874;49.452;11.050;2023-04-25T14:32:40;2.60;;;2.40;;
21426;SDS011;10874;49.452;11.050;2023-04-25T14:35:07;4.47;;;2.40;;
21426;SDS011;10874;49.452;11.050;2023-04-25T14:37:34;3.30;;;2.47;;
21426;SDS011;10874;49.452;11.050;2023-04-25T14:40:01;3.37;;;2.40;;
21426;SDS011;10874;49.452;11.050;2023-04-25T14:42:27;4.40;;;2.80;;
21426;SDS011;10874;49.452;11.050;2023-04-25T14:44:54;4.60;;;2.40;;
21426;SDS011;10874;49.452;11.050;2023-04-25T14:47:21;3.50;;;2.63;;
21426;SDS011;10874;49.452;11.050;2023-04-25T14:49:48;4.73;;;3.00;;
21426;SDS011;10874;49.452;11.050;2023-04-25T14:52:20;3.67;;;2.73;;
21426;SDS011;10874;49.452;11.050;2023-04-25T14:54:47;4.47;;;2.97;;
21426;SDS011;10874;49.452;11.050;2023-04-25T14:57:14;3.73;;;2.80;;
21426;SDS011;10874;49.452;11.050;2023-04-25T14:59:41;4.30;;;2.37;;
21426;SDS011;10874;49.452;11.050;2023-04-25T15:02:08;2.93;;;2.37;;
21426;SDS011;10874;49.452;11.050;2023-04-25T15:04:35;3.60;;;2.43;;
21426;SDS011;10874;49.452;11.050;2023-04-25T15:07:02;3.97;;;3.00;;
21426;SDS011;10874;49.452;11.050;2023-04-25T15:09:29;3.07;;;2.77;;
21426;SDS011;10874;49.452;11.050;2023-04-25T15:11:56;3.00;;;2.70;;
21426;SDS011;10874;49.452;11.050;2023-04-25T15:14:23;4.30;;;2.80;;
21426;SDS011;10874;49.452;11.050;2023-04-25T15:16:50;3.47;;;2.60;;
21426;SDS011;10874;49.452;11.050;2023-04-25T15:19:17;3.00;;;2.70;;
21426;SDS011;10874;49.452;11.050;2023-04-25T15:21:44;4.60;;;2.80;;
21426;SDS011;10874;49.452;11.050;2023-04-25T15:24:10;3.40;;;2.73;;
21426;SDS011;10874;49.452;11.050;2023-04-25T15:26:37;3.57;;;2.50;;
21426;SDS011;10874;49.452;11.050;2023-04-25T15:29:04;3.30;;;2.90;;
21426;SDS011;10874;49.452;11.050;2023-04-25T15:31:32;3.03;;;2.60;;
21426;SDS011;10874;49.452;11.050;2023-04-25T15:33:59;4.20;;;2.80;;
21426;SDS011;10874;49.452;11.050;2023-04-25T15:36:26;4.73;;;3.20;;
21426;SDS011;10874;49.452;11.050;2023-04-25T15:38:53;4.00;;;3.03;;
21426;SDS011;10874;49.452;11.050;2023-04-25T15:41:20;3.00;;;2.70;;
21426;SDS011;10874;49.452;11.050;2023-04-25T15:43:47;3.97;;;2.73;;
21426;SDS011;10874;49.452;11.050;2023-04-25T15:46:15;4.00;;;2.37;;
21426;SDS011;10874;49.452;11.050;2023-04-25T15:48:42;3.60;;;2.90;;
21426;SDS011;10874;49.452;11.050;2023-04-25T15:51:08;3.87;;;2.83;;
21426;SDS011;10874;49.452;11.050;2023-04-25T15:53:36;3.03;;;2.60;;
21426;SDS011;10874;49.452;11.050;2023-04-25T15:56:02;2.90;;;2.70;;
21426;SDS011;10874;49.452;11.050;2023-04-25T15:58:30;2.60;;;2.40;;
21426;SDS011;10874;49.452;11.050;2023-04-25T16:00:56;3.30;;;3.00;;
21426;SDS011;10874;49.452;11.050;2023-04-25T16:03:23;2.80;;;2.43;;
21426;SDS011;10874;49.452;11.050;2023-04-25T16:05:50;3.43;;;3.13;;
21426;SDS011;10874;49.452;11.050;2023-04-25T16:08:17;3.43;;;2.10;;
21426;SDS011;10874;49.452;11.050;2023-04-25T16:10:44;5.33;;;2.80;;
21426;SDS011;10874;49.452;11.050;2023-04-25T16:13:11;3.87;;;2.50;;